Time;durP1;ratioP1;P1;durP2;ratioP2;P2;SDS_P1;SDS_P2;PMS_P1;PMS_P2;Temp;Humidity;BMP_temperature;BMP_pressure;BME280_temperature;BME280_humidity;BME280_pressure;Samples;Min_cycle;Max_cycle;Signal;HPM_P1;HPM_P2
2022/04/10 00:00:01;;;;;;;3.63;0.75;;;;;;;1.61;100.00;101135.22;6223182;28;20053;-71
2022/04/10 00:03:03;;;;;;;0.30;0.30;;;;;;;1.61;100.00;101130.91;6222754;28;20068;-71
2022/04/10 00:06:05;;;;;;;0.50;0.50;;;;;;;1.55;100.00;101135.31;6223492;28;20046;-70
2022/04/10 00:09:07;;;;;;;0.43;0.40;;;;;;;1.54;100.00;101142.19;6223543;28;20050;-71
2022/04/10 00:12:09;;;;;;;7.97;1.15;;;;;;;1.50;100.00;101141.38;6220666;28;20537;-71
2022/04/10 00:15:11;;;;;;;0.50;0.50;;;;;;;1.50;100.00;101137.94;6223165;28;20390;-71
2022/04/10 00:18:12;;;;;;;0.82;0.68;;;;;;;1.46;100.00;101144.88;6222896;28;20060;-71
2022/04/10 00:21:13;;;;;;;1.30;0.73;;;;;;;1.42;100.00;101139.75;6222621;28;20061;-71
2022/04/10 00:24:16;;;;;;;0.73;0.40;;;;;;;1.42;100.00;101144.91;6222816;28;20042;-71
2022/04/10 00:27:17;;;;;;;0.45;0.30;;;;;;;1.40;100.00;101157.00;6222851;28;20449;-71
2022/04/10 00:30:19;;;;;;;0.50;0.45;;;;;;;1.35;100.00;101154.44;6222124;28;20061;-71
2022/04/10 00:33:20;;;;;;;2.05;0.80;;;;;;;1.34;100.00;101154.47;6222892;28;20050;-71
2022/04/10 00:36:22;;;;;;;0.68;0.68;;;;;;;1.43;100.00;101150.06;6222991;28;20061;-71
2022/04/10 00:39:24;;;;;;;2.30;1.17;;;;;;;1.37;100.00;101154.47;6222737;28;20489;-71
2022/04/10 00:42:31;;;;;;;3.53;1.08;;;;;;;1.33;100.00;101151.03;6221874;28;20429;-71
2022/04/10 00:45:32;;;;;;;1.50;0.82;;;;;;;1.32;100.00;101151.03;6222395;28;20410;-71
2022/04/10 00:48:34;;;;;;;8.75;1.58;;;;;;;1.27;100.00;101158.84;6222220;28;20406;-71
2022/04/10 00:51:46;;;;;;;0.57;0.57;;;;;;;1.23;100.00;101149.41;6222061;28;20056;-71
2022/04/10 00:54:49;;;;;;;4.63;0.52;;;;;;;1.23;100.00;101158.03;6222524;28;20553;-71
2022/04/10 00:57:51;;;;;;;1.38;0.80;;;;;;;1.21;100.00;101158.91;6222520;28;20049;-71
2022/04/10 01:00:52;;;;;;;1.13;0.60;;;;;;;1.25;100.00;101165.75;6221691;28;20532;-70
2022/04/10 01:03:53;;;;;;;0.88;0.60;;;;;;;1.23;100.00;101163.19;6222392;28;20080;-71
2022/04/10 01:06:57;;;;;;;0.95;0.80;;;;;;;1.18;100.00;101164.09;6222305;28;20052;-71
2022/04/10 01:09:59;;;;;;;0.40;0.40;;;;;;;1.19;100.00;101171.88;6221754;28;20054;-71
2022/04/10 01:13:01;;;;;;;2.45;0.90;;;;;;;1.23;100.00;101170.97;6221938;28;20061;-71
2022/04/10 01:16:03;;;;;;;1.55;0.65;;;;;;;1.28;100.00;101176.09;6222085;28;20785;-71
2022/04/10 01:19:05;;;;;;;3.60;0.57;;;;;;;1.39;100.00;101176.84;6222024;28;20052;-71
2022/04/10 01:22:08;;;;;;;0.85;0.52;;;;;;;1.42;100.00;101178.56;6221328;28;20046;-71
2022/04/10 01:25:11;;;;;;;1.77;0.88;;;;;;;1.45;100.00;101169.06;6222155;28;20045;-70
2022/04/10 01:28:13;;;;;;;0.88;0.88;;;;;;;1.47;100.00;101180.25;6221881;28;20057;-71
2022/04/10 01:31:15;;;;;;;1.48;0.80;;;;;;;1.49;100.00;101183.66;6222359;28;20517;-71
2022/04/10 01:34:17;;;;;;;3.15;0.98;;;;;;;1.42;100.00;101176.00;6225386;28;20057;-71
2022/04/10 01:37:20;;;;;;;1.83;0.80;;;;;;;1.43;100.00;101178.56;6226476;28;20104;-71
2022/04/10 01:40:23;;;;;;;1.65;0.80;;;;;;;1.41;100.00;101177.72;6218055;28;20054;-71
2022/04/10 01:43:24;;;;;;;3.67;1.20;;;;;;;1.35;100.00;101182.94;6226390;28;20050;-71
2022/04/10 01:46:28;;;;;;;4.72;1.25;;;;;;;1.33;100.00;101182.09;6226710;28;20054;-71
2022/04/10 01:49:29;;;;;;;4.43;1.25;;;;;;;1.35;100.00;101187.25;6225544;28;20046;-70
2022/04/10 01:52:30;;;;;;;4.82;0.95;;;;;;;1.35;100.00;101188.13;6225836;28;20502;-71
2022/04/10 01:55:34;;;;;;;10.80;2.72;;;;;;;1.33;100.00;101191.59;6226353;28;20046;-71
2022/04/10 01:58:37;;;;;;;1.90;0.70;;;;;;;1.33;100.00;101191.59;6226453;28;20132;-70
2022/04/10 02:01:38;;;;;;;1.13;0.80;;;;;;;1.42;100.00;101194.13;6225506;28;20646;-71
2022/04/10 02:04:40;;;;;;;0.85;0.50;;;;;;;1.46;100.00;101186.31;6226079;28;20046;-71
2022/04/10 02:07:41;;;;;;;1.85;0.80;;;;;;;1.47;100.00;101194.94;6226183;28;20054;-71
2022/04/10 02:10:44;;;;;;;1.02;0.77;;;;;;;1.45;100.00;101188.88;6225241;28;20054;-71
2022/04/10 02:13:46;;;;;;;0.73;0.40;;;;;;;1.41;100.00;101182.00;6225710;28;20049;-71
2022/04/10 02:16:48;;;;;;;3.13;1.05;;;;;;;1.37;100.00;101190.72;6225820;28;20049;-70
2022/04/10 02:19:49;;;;;;;1.45;0.75;;;;;;;1.41;100.00;101180.31;6225576;28;20426;-71
2022/04/10 02:22:53;;;;;;;2.03;1.08;;;;;;;1.46;100.00;101177.69;6225440;28;20050;-71
2022/04/10 02:25:56;;;;;;;0.55;0.47;;;;;;;1.48;100.00;101186.28;6225738;28;20068;-71
2022/04/10 02:28:57;;;;;;;3.22;1.45;;;;;;;1.48;100.00;101184.53;6225703;28;20387;-72
2022/04/10 02:31:59;;;;;;;1.17;0.93;;;;;;;1.47;100.00;101185.44;6225009;28;20050;-71
2022/04/10 02:35:00;;;;;;;0.90;0.65;;;;;;;1.44;100.00;101187.19;6225610;28;20053;-70
2022/04/10 02:38:01;;;;;;;3.92;0.45;;;;;;;1.46;100.00;101188.91;6225387;28;20057;-70
2022/04/10 02:41:04;;;;;;;1.30;0.57;;;;;;;1.40;100.00;101188.94;6224801;28;20057;-70
2022/04/10 02:44:06;;;;;;;1.58;0.90;;;;;;;1.37;100.00;101185.53;6224405;28;20511;-69
2022/04/10 02:47:08;;;;;;;1.33;0.52;;;;;;;1.38;100.00;101189.84;6225262;28;20050;-69
2022/04/10 02:50:10;;;;;;;3.83;1.48;;;;;;;1.38;100.00;101187.25;6224228;28;20053;-69
2022/04/10 02:53:11;;;;;;;2.55;0.77;;;;;;;1.42;100.00;101188.94;6225039;28;20054;-70
2022/04/10 02:56:14;;;;;;;1.92;0.80;;;;;;;1.45;100.00;101202.72;6225181;28;20049;-70
2022/04/10 02:59:15;;;;;;;1.80;0.60;;;;;;;1.44;100.00;101189.75;6225160;28;20501;-70
2022/04/10 03:02:16;;;;;;;3.75;0.63;;;;;;;1.41;100.00;101198.44;6224278;28;20054;-69
2022/04/10 03:05:17;;;;;;;13.95;1.00;;;;;;;1.37;100.00;101201.91;6224993;28;20056;-69
2022/04/10 03:08:20;;;;;;;2.03;1.08;;;;;;;1.35;100.00;101197.63;6224728;28;20050;-70
2022/04/10 03:11:25;;;;;;;5.43;1.33;;;;;;;1.35;100.00;101201.06;6224067;28;20053;-70
2022/04/10 03:14:26;;;;;;;1.05;0.50;;;;;;;1.36;100.00;101199.31;6224768;28;20493;-69
2022/04/10 03:17:27;;;;;;;1.23;0.85;;;;;;;1.31;100.00;101217.47;6224533;28;20049;-70
2022/04/10 03:20:29;;;;;;;6.57;0.93;;;;;;;1.29;100.00;101198.53;6223920;28;20202;-69
2022/04/10 03:23:30;;;;;;;3.65;1.13;;;;;;;1.30;100.00;101207.16;6224450;28;20504;-69
2022/04/10 03:26:33;;;;;;;6.45;0.95;;;;;;;1.23;100.00;101217.56;6224584;28;20047;-69
2022/04/10 03:29:34;;;;;;;1.15;0.75;;;;;;;1.24;100.00;101208.91;6224240;28;20064;-69
2022/04/10 03:32:35;;;;;;;2.47;0.90;;;;;;;1.27;100.00;101219.25;6223714;28;20058;-70
2022/04/10 03:35:37;;;;;;;1.95;0.55;;;;;;;1.37;100.00;101227.81;6224147;28;20049;-69
2022/04/10 03:38:38;;;;;;;2.97;0.88;;;;;;;1.42;100.00;101230.38;6224272;28;20050;-70
2022/04/10 03:41:41;;;;;;;4.82;0.85;;;;;;;1.46;100.00;101227.75;6223190;28;20054;-69
2022/04/10 03:44:42;;;;;;;3.10;1.05;;;;;;;1.50;100.00;101228.59;6223941;28;20049;-70
2022/04/10 03:47:44;;;;;;;0.63;0.57;;;;;;;1.48;100.00;101231.16;6223201;28;20502;-69
2022/04/10 03:50:45;;;;;;;1.80;0.82;;;;;;;1.42;100.00;101232.97;6223204;28;20050;-69
2022/04/10 03:53:46;;;;;;;0.65;0.65;;;;;;;1.37;100.00;101233.00;6223271;28;20045;-70
2022/04/10 03:56:49;;;;;;;1.17;1.00;;;;;;;1.33;100.00;101235.63;6223642;28;20525;-69
2022/04/10 03:59:50;;;;;;;1.50;0.73;;;;;;;1.28;100.00;101238.25;6223214;28;20049;-70
2022/04/10 04:02:51;;;;;;;0.85;0.77;;;;;;;1.23;100.00;101238.28;6222942;28;20060;-69
2022/04/10 04:05:55;;;;;;;4.82;0.80;;;;;;;1.24;100.00;101258.09;6223752;28;20049;-70
2022/04/10 04:08:56;;;;;;;2.88;0.90;;;;;;;1.22;100.00;101253.78;6223456;28;20046;-70
2022/04/10 04:11:59;;;;;;;1.00;0.77;;;;;;;1.19;100.00;101256.44;6222817;28;20050;-69
2022/04/10 04:15:00;;;;;;;1.05;0.98;;;;;;;1.16;100.00;101262.47;6223214;28;20053;-70
2022/04/10 04:18:01;;;;;;;1.35;0.28;;;;;;;1.12;100.00;101267.69;6223218;28;20430;-70
2022/04/10 04:21:03;;;;;;;0.43;0.43;;;;;;;1.13;100.00;101267.66;6222594;28;20046;-70
2022/04/10 04:24:05;;;;;;;1.60;1.15;;;;;;;1.10;100.00;101269.44;6223084;28;20413;-69
2022/04/10 04:27:07;;;;;;;6.88;0.90;;;;;;;1.10;100.00;101275.47;6222923;28;20049;-69
2022/04/10 04:30:09;;;;;;;0.65;0.57;;;;;;;1.10;100.00;101282.38;6222559;28;20137;-70
2022/04/10 04:33:11;;;;;;;0.95;0.85;;;;;;;1.09;100.00;101285.81;6222583;28;20497;-69
2022/04/10 04:36:12;;;;;;;0.85;0.77;;;;;;;1.10;100.00;101300.47;6222947;28;20053;-69
2022/04/10 04:39:13;;;;;;;2.53;1.80;;;;;;;1.10;100.00;101292.72;6222814;28;20425;-70
2022/04/10 04:42:16;;;;;;;1.95;0.68;;;;;;;1.09;100.00;101302.22;6222051;28;20050;-69
2022/04/10 04:45:18;;;;;;;0.50;0.50;;;;;;;1.07;100.00;101303.06;6223117;28;20050;-70
2022/04/10 04:48:19;;;;;;;0.70;0.70;;;;;;;1.09;100.00;101301.31;6222720;28;20080;-69
2022/04/10 04:51:21;;;;;;;1.88;1.27;;;;;;;1.07;100.00;101295.31;6221950;28;20085;-69
2022/04/10 04:54:22;;;;;;;3.53;0.85;;;;;;;1.07;100.00;101301.34;6222636;28;20049;-70
2022/04/10 04:57:25;;;;;;;0.93;0.77;;;;;;;1.07;100.00;101306.53;6222516;28;20054;-70
2022/04/10 05:00:26;;;;;;;7.15;0.95;;;;;;;1.09;100.00;101311.69;6221822;28;20049;-69
2022/04/10 05:03:28;;;;;;;11.02;0.63;;;;;;;1.14;100.00;101321.16;6222479;28;20493;-69
2022/04/10 05:06:29;;;;;;;2.75;1.00;;;;;;;1.19;100.00;101316.81;6221907;28;20046;-69
2022/04/10 05:09:30;;;;;;;1.30;0.90;;;;;;;1.25;100.00;101321.09;6222105;28;20046;-69
2022/04/10 05:12:34;;;;;;;1.08;0.80;;;;;;;1.26;100.00;101328.84;6221982;28;20046;-69
2022/04/10 05:15:35;;;;;;;3.05;0.82;;;;;;;1.31;100.00;101331.41;6222271;28;20057;-68
2022/04/10 05:18:37;;;;;;;1.08;0.77;;;;;;;1.38;100.00;101333.09;6222414;28;20050;-70
2022/04/10 05:21:38;;;;;;;1.65;0.52;;;;;;;1.40;100.00;101339.13;6221357;28;20460;-70
2022/04/10 05:24:40;;;;;;;9.48;1.00;;;;;;;1.46;100.00;101340.84;6222076;28;20046;-70
2022/04/10 05:27:42;;;;;;;2.63;0.55;;;;;;;1.55;100.00;101352.88;6221985;28;20046;-70
2022/04/10 05:30:44;;;;;;;1.45;1.27;;;;;;;1.63;100.00;101351.06;6221310;28;20468;-69
2022/04/10 05:33:46;;;;;;;0.95;0.50;;;;;;;1.65;100.00;101350.19;6222231;28;20505;-69
2022/04/10 05:36:47;;;;;;;2.80;1.15;;;;;;;1.68;100.00;101360.53;6221859;28;20049;-70
2022/04/10 05:39:48;;;;;;;0.90;0.90;;;;;;;1.66;100.00;101364.84;6221748;28;20073;-70
2022/04/10 05:42:51;;;;;;;2.15;0.60;;;;;;;1.69;100.00;101369.16;6221683;28;20057;-69
2022/04/10 05:45:53;;;;;;;3.70;1.13;;;;;;;1.69;100.00;101372.63;6222009;28;20410;-69
2022/04/10 05:48:54;;;;;;;2.72;0.57;;;;;;;1.76;100.00;101370.81;6221193;28;20422;-69
2022/04/10 05:51:55;;;;;;;2.13;0.98;;;;;;;1.78;100.00;101382.06;6220899;28;20050;-70
2022/04/10 05:54:58;;;;;;;2.15;0.70;;;;;;;1.81;100.00;101378.56;6221761;28;20050;-69
2022/04/10 05:58:02;;;;;;;1.17;0.95;;;;;;;1.92;100.00;101380.22;6221540;28;20497;-70
2022/04/10 06:01:03;;;;;;;4.18;1.58;;;;;;;1.94;100.00;101380.19;6220853;28;20073;-70
2022/04/10 06:04:05;;;;;;;4.63;1.13;;;;;;;1.95;100.00;101393.16;6221664;28;20417;-68
2022/04/10 06:07:06;;;;;;;1.38;0.63;;;;;;;2.04;100.00;101400.00;6221741;28;20069;-70
2022/04/10 06:10:08;;;;;;;2.97;0.80;;;;;;;2.14;100.00;101395.63;6221168;28;20060;-69
2022/04/10 06:13:11;;;;;;;0.65;0.65;;;;;;;2.24;100.00;101392.94;6221388;28;20053;-69
2022/04/10 06:16:13;;;;;;;4.75;1.02;;;;;;;2.26;100.00;101398.09;6221278;28;20598;-70
2022/04/10 06:19:16;;;;;;;2.97;0.65;;;;;;;2.25;100.00;101404.16;6225687;28;20046;-70
2022/04/10 06:22:17;;;;;;;2.15;0.60;;;;;;;2.32;100.00;101412.72;6225419;28;20192;-69
2022/04/10 06:25:18;;;;;;;1.38;0.70;;;;;;;2.37;100.00;101413.56;6226054;28;20053;-70
2022/04/10 06:28:21;;;;;;;5.68;1.00;;;;;;;2.44;100.00;101415.22;6225824;28;20048;-70
2022/04/10 06:31:22;;;;;;;1.23;0.82;;;;;;;2.46;100.00;101418.69;6224825;28;20049;-69
2022/04/10 06:34:24;;;;;;;9.60;0.85;;;;;;;2.45;100.00;101415.22;6225772;28;20057;-70
2022/04/10 06:37:25;;;;;;;1.10;0.73;;;;;;;2.50;100.00;101422.97;6225578;28;20050;-69
2022/04/10 06:40:26;;;;;;;1.15;0.45;;;;;;;2.54;100.00;101428.13;6225180;28;20054;-70
2022/04/10 06:43:29;;;;;;;2.15;0.82;;;;;;;2.65;100.00;101424.53;6225403;28;20057;-70
2022/04/10 06:46:30;;;;;;;2.50;0.85;;;;;;;2.76;100.00;101438.25;6225489;28;20053;-70
2022/04/10 06:49:32;;;;;;;3.20;0.63;;;;;;;2.75;100.00;101436.56;6225048;28;20064;-69
2022/04/10 06:52:35;;;;;;;3.40;1.38;;;;;;;2.71;100.00;101443.50;6223022;28;20073;-70
2022/04/10 06:55:36;;;;;;;0.63;0.60;;;;;;;2.67;100.00;101435.75;6225010;28;20046;-69
2022/04/10 06:58:39;;;;;;;0.80;0.73;;;;;;;2.77;100.00;101440.88;6225278;28;20061;-70
2022/04/10 07:01:40;;;;;;;4.18;1.00;;;;;;;2.78;100.00;101449.50;6224333;28;20489;-69
2022/04/10 07:04:41;;;;;;;2.88;0.85;;;;;;;2.83;100.00;101437.34;6224712;28;20049;-70
2022/04/10 07:07:43;;;;;;;3.25;0.75;;;;;;;2.89;100.00;101450.25;6224859;28;20509;-69
2022/04/10 07:10:44;;;;;;;2.90;1.38;;;;;;;3.00;100.00;101437.16;6224256;28;20050;-70
2022/04/10 07:13:47;;;;;;;2.17;0.60;;;;;;;2.99;100.00;101445.81;6224864;28;20046;-69
2022/04/10 07:16:48;;;;;;;1.20;0.68;;;;;;;3.04;100.00;101451.81;6224796;28;20533;-70
2022/04/10 07:19:49;;;;;;;0.68;0.68;;;;;;;3.07;100.00;101448.34;6224286;28;20053;-70
2022/04/10 07:26:10;;;;;;;1.25;1.00;;;;;;;3.17;100.00;101456.00;6224378;28;20079;-70
2022/04/10 07:29:13;;;;;;;5.78;1.25;;;;;;;3.34;100.00;101440.22;6223587;28;20069;-69
2022/04/10 07:32:14;;;;;;;4.22;1.70;;;;;;;3.45;100.00;101453.94;6223147;28;20049;-69
2022/04/10 07:35:15;;;;;;;6.03;1.55;;;;;;;3.58;100.00;101457.22;6222335;28;20437;-69
2022/04/10 07:38:17;;;;;;;0.80;0.77;;;;;;;3.77;100.00;101442.22;6224051;28;20046;-70
2022/04/10 07:41:18;;;;;;;8.07;1.48;;;;;;;3.88;100.00;101448.16;6223337;28;20046;-70
2022/04/10 07:44:21;;;;;;;1.52;0.90;;;;;;;4.02;100.00;101447.94;6224030;28;20049;-69
2022/04/10 07:47:28;;;;;;;0.50;0.47;;;;;;;3.95;100.00;101444.59;6199695;28;20048;-69
2022/04/10 07:50:30;;;;;;;1.45;0.80;;;;;;;4.05;100.00;101450.50;6222729;28;20081;-68
2022/04/10 07:53:31;;;;;;;1.55;0.70;;;;;;;3.95;100.00;101465.41;6223720;28;20045;-69
2022/04/10 07:56:33;;;;;;;2.40;0.63;;;;;;;4.00;100.00;101476.59;6222586;28;20844;-69
2022/04/10 07:59:35;;;;;;;1.40;0.32;;;;;;;3.98;100.00;101480.94;6223200;28;20057;-69
2022/04/10 08:02:38;;;;;;;2.33;0.82;;;;;;;3.95;100.00;101469.72;6222623;28;20576;-69
2022/04/10 08:05:39;;;;;;;2.40;0.55;;;;;;;3.86;100.00;101480.25;6223770;28;20128;-70
2022/04/10 08:08:41;;;;;;;1.10;0.77;;;;;;;3.92;100.00;101473.22;6223504;28;20421;-70
2022/04/10 08:11:42;;;;;;;0.70;0.60;;;;;;;3.86;100.00;101490.63;6222768;28;20054;-69
2022/04/10 08:14:45;;;;;;;2.78;0.73;;;;;;;3.86;100.00;101491.53;6223538;28;20398;-70
2022/04/10 08:17:46;;;;;;;3.95;1.00;;;;;;;3.85;100.00;101494.13;6223773;28;20045;-70
2022/04/10 08:20:49;;;;;;;0.35;0.30;;;;;;;3.87;100.00;101502.78;6222569;28;20054;-70
2022/04/10 08:23:51;;;;;;;1.98;0.73;;;;;;;3.94;100.00;101513.06;6223439;28;20481;-69
2022/04/10 08:26:52;;;;;;;2.13;1.35;;;;;;;4.17;100.00;101506.69;6219583;28;20046;-68
2022/04/10 08:29:55;;;;;;;2.00;0.70;;;;;;;4.36;100.00;101510.75;6222675;28;20060;-68
2022/04/10 08:32:56;;;;;;;6.35;0.90;;;;;;;4.37;100.00;101517.66;6222448;28;20068;-70
2022/04/10 08:35:57;;;;;;;0.93;0.60;;;;;;;4.46;100.00;101519.25;6222722;28;20050;-69
2022/04/10 08:38:59;;;;;;;7.38;0.63;;;;;;;4.60;100.00;101535.53;6222986;28;20049;-68
2022/04/10 08:42:02;;;;;;;5.63;1.08;;;;;;;4.67;100.00;101525.84;6220964;28;20049;-70
2022/04/10 08:45:07;;;;;;;6.00;1.08;;;;;;;4.74;100.00;101524.88;6222841;28;20053;-70
2022/04/10 08:48:08;;;;;;;2.80;0.80;;;;;;;4.96;100.00;101534.03;6222648;28;20049;-70
2022/04/10 08:51:10;;;;;;;0.88;0.80;;;;;;;4.90;100.00;101534.13;6221943;28;20050;-70
2022/04/10 08:54:13;;;;;;;8.52;0.73;;;;;;;5.11;100.00;101530.31;6222493;28;20053;-69
2022/04/10 08:57:15;;;;;;;1.60;1.00;;;;;;;5.28;100.00;101540.41;6222686;28;20045;-70
2022/04/10 09:00:19;;;;;;;2.80;0.80;;;;;;;5.14;100.00;101538.06;6221902;28;20061;-67
2022/04/10 09:03:20;;;;;;;4.68;1.25;;;;;;;5.17;100.00;101537.13;6222341;28;20414;-70
2022/04/10 09:06:22;;;;;;;3.60;0.60;;;;;;;5.37;100.00;101531.56;6222245;28;20050;-69
2022/04/10 09:09:23;;;;;;;0.95;0.63;;;;;;;5.25;100.00;101540.47;6223760;28;20057;-70
2022/04/10 09:12:25;;;;;;;8.38;0.95;;;;;;;5.17;100.00;101534.53;6222574;28;20054;-70
2022/04/10 09:15:33;;;;;;;0.40;0.40;;;;;;;5.41;100.00;101522.81;6223237;28;20486;-70
2022/04/10 09:18:46;;;;;;;2.88;0.90;;;;;;;5.33;100.00;101549.88;6218912;28;20049;-69
2022/04/10 09:21:47;;;;;;;0.20;0.20;;;;;;;5.25;100.00;101535.25;6198329;28;20046;-70
2022/04/10 09:25:05;;;;;;;1.85;0.47;;;;;;;5.35;100.00;101529.84;6198097;28;20051;-70
2022/04/10 09:28:06;;;;;;;0.68;0.30;;;;;;;5.69;100.00;101537.00;6197434;28;20052;-69
2022/04/10 09:31:31;;;;;;;0.47;0.47;;;;;;;5.96;100.00;101533.00;6197178;28;20506;-71
2022/04/10 09:34:33;;;;;;;2.35;0.50;;;;;;;5.77;100.00;101537.72;6197554;28;20518;-68
2022/04/10 09:37:44;;;;;;;1.83;0.40;;;;;;;5.71;100.00;101555.22;6197627;28;20042;-69
2022/04/10 09:40:45;;;;;;;3.00;0.40;;;;;;;5.86;100.00;101539.28;6196771;28;20051;-69
2022/04/10 09:43:47;;;;;;;3.95;1.48;;;;;;;6.06;94.32;101536.25;6197626;28;20062;-71
2022/04/10 09:47:01;;;;;;;2.03;0.60;;;;;;;6.19;94.90;101532.47;6202020;28;20053;-70
2022/04/10 09:50:05;;;;;;;1.65;0.47;;;;;;;6.09;96.92;101542.28;6216448;28;20050;-69
2022/04/10 09:53:08;;;;;;;1.25;0.50;;;;;;;6.01;100.00;101528.53;6223684;28;20058;-70
2022/04/10 09:56:10;;;;;;;0.93;0.43;;;;;;;5.56;100.00;101535.53;6226561;28;20046;-69
2022/04/10 09:59:12;;;;;;;1.52;0.38;;;;;;;5.41;100.00;101536.69;6226182;28;20053;-70
2022/04/10 10:02:16;;;;;;;0.60;0.40;;;;;;;5.50;100.00;101528.69;6225787;28;20631;-70
2022/04/10 10:05:19;;;;;;;1.17;0.50;;;;;;;5.89;100.00;101540.94;6226228;28;20058;-69
2022/04/10 10:08:22;;;;;;;2.45;1.65;;;;;;;5.95;98.24;101539.09;6226269;28;20050;-70
2022/04/10 10:11:23;;;;;;;1.40;0.40;;;;;;;6.22;93.83;101510.66;6225461;28;20050;-69
2022/04/10 10:14:25;;;;;;;0.38;0.38;;;;;;;6.32;90.96;101505.22;6226164;28;20452;-70
2022/04/10 10:17:28;;;;;;;0.40;0.38;;;;;;;6.33;92.46;101519.97;6225675;28;20045;-73
2022/04/10 10:20:30;;;;;;;1.65;0.50;;;;;;;6.31;89.55;101511.34;6225268;28;20679;-73
2022/04/10 10:23:36;;;;;;;4.03;1.00;;;;;;;6.28;88.59;101527.06;6225856;28;20050;-71
2022/04/10 10:26:54;;;;;;;4.70;0.50;;;;;;;6.34;89.04;101519.06;6225621;28;20147;-70
2022/04/10 10:30:08;;;;;;;10.18;1.05;;;;;;;6.60;89.81;101522.81;6225429;28;20053;-70
2022/04/10 10:33:18;;;;;;;1.55;0.70;;;;;;;6.74;87.36;101519.88;6225494;28;20050;-71
2022/04/10 10:36:23;;;;;;;0.73;0.73;;;;;;;6.82;86.67;101521.41;6225658;28;20053;-70
2022/04/10 10:39:25;;;;;;;0.98;0.45;;;;;;;6.88;84.26;101499.47;6225590;28;20052;-73
2022/04/10 10:42:26;;;;;;;0.30;0.30;;;;;;;7.20;82.63;101516.06;6224919;28;20054;-71
2022/04/10 10:45:36;;;;;;;0.17;0.17;;;;;;;7.29;81.81;101521.03;6224744;28;20058;-73
2022/04/10 10:48:41;;;;;;;0.32;0.32;;;;;;;7.12;79.30;101524.09;6221796;28;20095;-73
2022/04/10 10:51:44;;;;;;;1.67;0.50;;;;;;;7.00;79.21;101532.28;6222110;28;20072;-73
2022/04/10 10:54:51;;;;;;;2.15;0.77;;;;;;;6.58;87.06;101530.69;6223938;28;20046;-70
2022/04/10 10:57:53;;;;;;;0.55;0.40;;;;;;;6.38;91.47;101545.97;6224733;28;20619;-71
2022/04/10 11:00:54;;;;;;;1.30;0.60;;;;;;;6.31;92.40;101544.38;6223910;28;20064;-70
2022/04/10 11:04:01;;;;;;;0.73;0.57;;;;;;;6.06;95.58;101578.00;6223432;28;20054;-71
2022/04/10 11:07:13;;;;;;;4.00;0.60;;;;;;;5.71;100.00;101587.38;6224748;28;20049;-70
2022/04/10 11:10:15;;;;;;;1.02;0.40;;;;;;;5.12;100.00;101584.13;6224102;28;20414;-71
2022/04/10 11:13:19;;;;;;;0.30;0.30;;;;;;;4.79;100.00;101596.81;6224796;28;20477;-69
2022/04/10 11:16:24;;;;;;;1.25;0.57;;;;;;;4.58;100.00;101598.00;6224653;28;20049;-70
2022/04/10 11:19:26;;;;;;;0.75;0.40;;;;;;;4.60;100.00;101598.00;6224556;28;20453;-70
2022/04/10 11:22:33;;;;;;;4.57;1.30;;;;;;;4.78;100.00;101586.44;6223592;28;20049;-71
2022/04/10 11:25:39;;;;;;;0.47;0.28;;;;;;;5.03;100.00;101590.34;6224592;28;20520;-71
2022/04/10 11:29:02;;;;;;;2.92;0.40;;;;;;;5.38;100.00;101583.66;6224045;28;20184;-70
2022/04/10 11:32:05;;;;;;;0.10;0.10;;;;;;;5.63;100.00;101591.88;6223660;28;20125;-70
2022/04/10 11:35:14;;;;;;;1.67;0.45;;;;;;;6.00;100.00;101580.75;6224180;28;20103;-70
2022/04/10 11:38:17;;;;;;;0.40;0.20;;;;;;;6.38;100.00;101574.69;6224039;28;20045;-71
2022/04/10 11:41:18;;;;;;;3.20;0.68;;;;;;;6.91;100.00;101561.25;6223183;28;20050;-72
2022/04/10 11:44:20;;;;;;;0.40;0.40;;;;;;;7.40;97.57;101573.03;6224091;28;20054;-73
2022/04/10 11:47:22;;;;;;;3.00;0.75;;;;;;;7.35;94.67;101579.25;6223787;28;20052;-72
2022/04/10 11:50:27;;;;;;;2.25;0.32;;;;;;;7.60;96.48;101576.84;6219626;28;20053;-71
2022/04/10 11:53:31;;;;;;;3.00;0.70;;;;;;;7.89;96.15;101583.84;6223598;28;20050;-71
2022/04/10 11:56:33;;;;;;;1.88;0.63;;;;;;;8.16;89.54;101581.31;6223774;28;20052;-70
2022/04/10 11:59:36;;;;;;;0.40;0.40;;;;;;;8.33;88.49;101578.22;6223564;28;20053;-71
2022/04/10 12:02:39;;;;;;;0.22;0.22;;;;;;;7.93;88.25;101594.25;6222900;28;20053;-72
2022/04/10 12:05:42;;;;;;;1.50;0.45;;;;;;;7.12;89.24;101582.44;6223508;28;20050;-72
2022/04/10 12:08:43;;;;;;;8.48;0.80;;;;;;;6.85;92.25;101583.16;6223307;28;20485;-73
2022/04/10 12:11:44;;;;;;;1.48;0.77;;;;;;;6.74;91.80;101586.03;6222704;28;20057;-73
2022/04/10 12:14:46;;;;;;;1.30;0.50;;;;;;;6.47;89.14;101589.28;6223013;28;20053;-73
2022/04/10 12:17:49;;;;;;;1.98;0.88;;;;;;;6.64;92.69;101599.34;6223284;28;20041;-72
2022/04/10 12:20:58;;;;;;;0.88;0.50;;;;;;;6.70;95.04;101591.34;6222494;28;20049;-72
2022/04/10 12:24:01;;;;;;;2.17;0.82;;;;;;;7.37;92.03;101594.91;6223343;28;20056;-73
2022/04/10 12:27:04;;;;;;;0.30;0.30;;;;;;;8.08;84.90;101583.31;6222187;28;20076;-73
2022/04/10 12:30:10;;;;;;;0.38;0.28;;;;;;;8.78;83.72;101589.03;6221986;28;20046;-71
2022/04/10 12:33:13;;;;;;;0.90;0.40;;;;;;;8.76;77.13;101603.94;6222187;28;20065;-71
2022/04/10 12:36:21;;;;;;;2.60;0.50;;;;;;;8.70;77.49;101585.81;6223237;28;20060;-71
2022/04/10 12:39:26;;;;;;;1.67;0.88;;;;;;;8.07;81.54;101595.53;6222737;28;20188;-72
2022/04/10 12:42:38;;;;;;;0.20;0.20;;;;;;;7.53;87.22;101601.41;6222302;28;20049;-72
2022/04/10 12:45:41;;;;;;;1.00;0.80;;;;;;;7.32;92.26;101604.63;6222763;28;20482;-76
2022/04/10 12:48:42;;;;;;;4.30;0.50;;;;;;;7.93;86.15;101620.41;6222616;28;20046;-73
2022/04/10 12:51:49;;;;;;;1.10;0.60;;;;;;;8.18;86.01;101603.09;6222011;28;20053;-72
2022/04/10 12:54:52;;;;;;;0.70;0.50;;;;;;;7.74;86.46;101605.22;6222632;28;20060;-72
2022/04/10 12:57:55;;;;;;;2.72;0.60;;;;;;;7.64;91.24;101619.47;6222459;28;20085;-73
2022/04/10 13:00:57;;;;;;;0.55;0.20;;;;;;;8.19;91.97;101623.13;6222042;28;20050;-73
2022/04/10 13:03:59;;;;;;;0.30;0.30;;;;;;;8.77;85.97;101605.69;6222402;28;20076;-72
2022/04/10 13:07:02;;;;;;;1.08;0.40;;;;;;;9.01;86.79;101608.41;6220298;28;20053;-70
2022/04/10 13:10:06;;;;;;;1.42;0.43;;;;;;;9.45;82.90;101617.41;6220890;28;20056;-71
2022/04/10 13:13:08;;;;;;;2.03;0.50;;;;;;;9.71;77.09;101613.84;6220027;28;20053;-71
2022/04/10 13:16:11;;;;;;;0.32;0.30;;;;;;;9.23;79.38;101626.91;6222153;28;20050;-71
2022/04/10 13:19:14;;;;;;;1.13;0.40;;;;;;;9.12;76.34;101622.84;6222079;28;20053;-70
2022/04/10 13:22:19;;;;;;;0.32;0.17;;;;;;;8.22;79.40;101625.69;6221488;28;20061;-69
2022/04/10 13:25:20;;;;;;;0.95;0.82;;;;;;;8.36;80.15;101617.41;6222006;28;20058;-72
2022/04/10 13:28:21;;;;;;;0.57;0.40;;;;;;;8.91;80.31;101614.84;6225179;28;20520;-73
2022/04/10 13:31:23;;;;;;;1.20;0.40;;;;;;;8.81;79.21;101607.28;6226358;28;20053;-74
2022/04/10 13:34:25;;;;;;;0.32;0.32;;;;;;;9.07;76.26;101616.06;6224566;28;20049;-73
2022/04/10 13:37:29;;;;;;;0.70;0.60;;;;;;;9.73;74.06;101621.66;6225865;28;20041;-70
2022/04/10 13:40:31;;;;;;;4.53;0.70;;;;;;;10.69;71.72;101619.81;6223090;28;20498;-71
2022/04/10 13:43:33;;;;;;;0.55;0.43;;;;;;;9.74;73.35;101623.38;6225813;28;20111;-70
2022/04/10 13:46:34;;;;;;;1.15;0.50;;;;;;;8.96;78.61;101628.66;6226274;28;20049;-70
2022/04/10 13:49:36;;;;;;;0.57;0.35;;;;;;;8.94;80.09;101625.22;6223923;28;20045;-70
2022/04/10 13:52:38;;;;;;;3.83;0.50;;;;;;;9.00;78.40;101619.81;6225779;28;20061;-70
2022/04/10 13:55:40;;;;;;;1.15;0.60;;;;;;;9.56;81.93;101619.63;6220482;28;20053;-70
2022/04/10 13:58:41;;;;;;;0.80;0.40;;;;;;;10.49;76.57;101621.47;6224257;28;20046;-71
2022/04/10 14:01:42;;;;;;;0.90;0.40;;;;;;;10.69;72.29;101627.72;6225808;28;20058;-71
2022/04/10 14:04:44;;;;;;;2.40;0.60;;;;;;;10.32;71.20;101622.13;6226366;28;20057;-70
2022/04/10 14:07:46;;;;;;;4.50;0.40;;;;;;;9.48;74.76;101619.88;6226429;28;20056;-70
2022/04/10 14:10:48;;;;;;;5.68;0.30;;;;;;;8.86;80.06;101618.47;6225611;28;20053;-70
2022/04/10 14:13:49;;;;;;;2.05;0.40;;;;;;;8.44;80.58;101618.03;6226155;28;20050;-73